Time;durP1;ratioP1;P1;durP2;ratioP2;P2;SDS_P1;SDS_P2;PMS_P1;PMS_P2;Temp;Humidity;BMP_temperature;BMP_pressure;BME280_temperature;BME280_humidity;BME280_pressure;Samples;Min_cycle;Max_cycle;Signal;HPM_P1;HPM_P2
2023/05/17 00:00:33;;;;;;;13.15;3.95;;;;;;;8.29;100.00;102394.97;5009770;28;20100;-62
2023/05/17 00:02:58;;;;;;;9.75;3.15;;;;;;;8.29;100.00;102400.44;5024535;28;20071;-61
2023/05/17 00:05:24;;;;;;;11.75;4.03;;;;;;;8.28;100.00;102392.41;5028363;28;20030;-61
2023/05/17 00:07:50;;;;;;;9.85;3.58;;;;;;;8.27;100.00;102401.66;5028541;28;20029;-61
2023/05/17 00:10:15;;;;;;;10.55;3.47;;;;;;;8.25;100.00;102404.53;5018132;28;20490;-61
2023/05/17 00:12:41;;;;;;;9.55;4.13;;;;;;;8.24;100.00;102407.47;5011057;28;20053;-61
2023/05/17 00:15:06;;;;;;;9.88;3.90;;;;;;;8.24;100.00;102407.47;5029593;28;20104;-62
2023/05/17 00:17:32;;;;;;;10.32;3.60;;;;;;;8.23;100.00;102413.97;5019000;28;20091;-61
2023/05/17 00:19:57;;;;;;;11.30;4.07;;;;;;;8.23;100.00;102412.09;5020327;28;20037;-61
2023/05/17 00:22:22;;;;;;;10.20;3.97;;;;;;;8.19;100.00;102396.19;5007685;28;20034;-62
2023/05/17 00:24:48;;;;;;;12.10;4.05;;;;;;;8.16;100.00;102400.16;5018373;28;20033;-61
2023/05/17 00:27:13;;;;;;;9.35;3.83;;;;;;;8.16;100.00;102412.97;5028175;28;20421;-61
2023/05/17 00:29:38;;;;;;;10.23;3.63;;;;;;;8.16;100.00;102412.97;5009911;28;20033;-61
2023/05/17 00:32:04;;;;;;;11.00;3.95;;;;;;;8.14;100.00;102412.31;5015562;28;20503;-61
2023/05/17 00:34:29;;;;;;;9.13;3.70;;;;;;;8.13;100.00;102405.13;5015746;28;20038;-62
2023/05/17 00:36:54;;;;;;;9.48;3.58;;;;;;;8.09;100.00;102409.25;5022924;28;20103;-61
2023/05/17 00:39:20;;;;;;;9.40;3.85;;;;;;;8.07;100.00;102413.00;5020040;28;20053;-61
2023/05/17 00:41:45;;;;;;;9.60;3.83;;;;;;;8.06;100.00;102410.47;5012000;28;20412;-61
2023/05/17 00:44:10;;;;;;;10.32;3.78;;;;;;;8.07;100.00;102412.16;5017280;28;20508;-61
2023/05/17 00:46:36;;;;;;;13.77;4.28;;;;;;;8.07;100.00;102406.69;5028028;28;20036;-61
2023/05/17 00:49:01;;;;;;;10.27;3.78;;;;;;;8.03;100.00;102392.50;5027834;28;20562;-62
2023/05/17 00:51:27;;;;;;;9.27;3.90;;;;;;;8.04;100.00;102398.81;5015756;28;20096;-61
2023/05/17 00:53:53;;;;;;;10.02;3.88;;;;;;;8.00;100.00;102395.56;5027254;28;20034;-61
2023/05/17 00:56:18;;;;;;;10.75;4.28;;;;;;;7.99;100.00;102390.28;5027214;28;20033;-61
2023/05/17 00:58:44;;;;;;;10.55;4.13;;;;;;;7.97;100.00;102393.19;5007908;28;20473;-61
2023/05/17 01:01:09;;;;;;;8.52;3.80;;;;;;;7.94;100.00;102396.28;5008372;28;20496;-61
2023/05/17 01:03:34;;;;;;;9.73;4.22;;;;;;;7.90;100.00;102405.00;5022246;28;20358;-61
2023/05/17 01:06:00;;;;;;;11.20;4.28;;;;;;;7.90;100.00;102407.75;5019294;28;20044;-61
2023/05/17 01:08:26;;;;;;;9.63;4.30;;;;;;;7.85;100.00;102402.78;5021107;28;20033;-61
2023/05/17 01:11:33;;;;;;;9.13;4.65;;;;;;;7.85;100.00;102391.00;5027863;28;20033;-61
2023/05/17 01:14:14;;;;;;;11.90;4.93;;;;;;;7.81;100.00;102398.72;4993272;28;20073;-61
2023/05/17 01:16:45;;;;;;;11.63;4.70;;;;;;;7.77;100.00;102400.94;5024047;28;20055;-61
2023/05/17 01:19:32;;;;;;;10.73;4.75;;;;;;;7.75;100.00;102415.81;5025061;28;20031;-61
2023/05/17 01:22:14;;;;;;;10.77;4.97;;;;;;;7.73;100.00;102410.53;5021922;28;20044;-61
2023/05/17 01:25:11;;;;;;;10.57;4.63;;;;;;;7.72;100.00;102411.56;4998703;28;20031;-61
2023/05/17 01:27:39;;;;;;;9.95;4.70;;;;;;;7.65;100.00;102413.25;5000714;28;20045;-61
2023/05/17 01:30:08;;;;;;;10.65;4.93;;;;;;;7.60;100.00;102410.19;5026833;28;20053;-61
2023/05/17 01:32:34;;;;;;;11.35;4.88;;;;;;;7.58;100.00;102411.41;5026177;28;20049;-61
2023/05/17 01:34:59;;;;;;;13.70;5.03;;;;;;;7.54;100.00;102410.88;5023122;28;20057;-61
2023/05/17 01:37:24;;;;;;;11.00;5.10;;;;;;;7.49;100.00;102397.72;5019469;28;20120;-61
2023/05/17 01:39:50;;;;;;;10.95;5.10;;;;;;;7.50;100.00;102401.31;5016034;28;20030;-61
2023/05/17 01:42:24;;;;;;;12.65;5.68;;;;;;;7.49;100.00;102407.81;5013441;28;20026;-61
2023/05/17 01:45:02;;;;;;;9.38;4.93;;;;;;;7.48;100.00;102408.84;5022266;28;20129;-61
2023/05/17 01:47:55;;;;;;;10.57;6.50;;;;;;;7.47;100.00;102408.00;5025705;28;20067;-62
2023/05/17 01:50:23;;;;;;;10.32;5.35;;;;;;;7.45;100.00;102406.44;5025599;28;20030;-61
2023/05/17 01:52:54;;;;;;;9.63;4.78;;;;;;;7.40;100.00;102407.00;5024269;28;20564;-61
2023/05/17 01:56:07;;;;;;;11.80;5.75;;;;;;;7.42;100.00;102410.38;5019154;28;20028;-61
2023/05/17 01:58:43;;;;;;;9.50;5.50;;;;;;;7.37;100.00;102407.31;5011251;28;20064;-61
2023/05/17 02:01:10;;;;;;;11.07;5.20;;;;;;;7.34;100.00;102418.59;5006252;28;20025;-61
2023/05/17 02:03:35;;;;;;;10.55;5.30;;;;;;;7.35;100.00;102408.50;5012072;28;20370;-61
2023/05/17 02:06:00;;;;;;;10.50;5.40;;;;;;;7.33;100.00;102407.81;5009877;28;20037;-61
2023/05/17 02:08:26;;;;;;;10.23;4.97;;;;;;;7.33;100.00;102402.38;5007010;28;20034;-61
2023/05/17 02:10:51;;;;;;;9.43;5.22;;;;;;;7.31;100.00;102401.69;5019442;28;20509;-60
2023/05/17 02:13:16;;;;;;;10.57;5.25;;;;;;;7.29;100.00;102410.88;5016822;28;20037;-61
2023/05/17 02:15:41;;;;;;;10.77;5.38;;;;;;;7.27;100.00;102410.22;5013338;28;20388;-61
2023/05/17 02:18:07;;;;;;;11.43;5.38;;;;;;;7.28;100.00;102403.72;5005639;28;20125;-61
2023/05/17 02:20:32;;;;;;;9.30;5.43;;;;;;;7.27;100.00;102404.75;5001069;28;20029;-61
2023/05/17 02:22:57;;;;;;;10.80;5.22;;;;;;;7.28;100.00;102398.25;5015280;28;20033;-60
2023/05/17 02:25:22;;;;;;;11.38;6.35;;;;;;;7.34;100.00;102393.13;5003882;28;20026;-61
2023/05/17 02:27:48;;;;;;;11.52;6.20;;;;;;;7.40;100.00;102390.59;5011574;28;20073;-60
2023/05/17 02:30:15;;;;;;;11.55;5.60;;;;;;;7.42;100.00;102404.06;5024138;28;20052;-61
2023/05/17 02:32:41;;;;;;;11.48;6.05;;;;;;;7.45;100.00;102407.31;5017821;28;20030;-61
2023/05/17 02:35:07;;;;;;;13.68;5.78;;;;;;;7.45;100.00;102406.44;5016036;28;20377;-61
2023/05/17 02:37:32;;;;;;;12.80;5.78;;;;;;;7.46;100.00;102416.38;5019582;28;20044;-61
2023/05/17 02:39:57;;;;;;;9.48;5.50;;;;;;;7.46;100.00;102421.84;5003595;28;20030;-61
2023/05/17 02:42:23;;;;;;;10.65;5.70;;;;;;;7.48;100.00;102419.78;5052042;22;20024;-61
2023/05/17 02:44:51;;;;;;;9.50;5.63;;;;;;;7.51;100.00;102416.72;5016829;28;20034;-61
2023/05/17 02:47:19;;;;;;;10.00;5.63;;;;;;;7.59;100.00;102413.94;5004822;28;20778;-61
2023/05/17 02:49:45;;;;;;;10.25;6.10;;;;;;;7.60;100.00;102414.81;4998479;28;20390;-60
2023/05/17 02:52:10;;;;;;;11.32;5.93;;;;;;;7.68;100.00;102417.53;5002465;28;20129;-61
2023/05/17 02:54:35;;;;;;;9.88;6.25;;;;;;;7.71;100.00;102426.25;5006117;28;20026;-61
2023/05/17 02:57:01;;;;;;;12.40;6.40;;;;;;;7.73;100.00;102416.00;4998882;28;20476;-61
2023/05/17 02:59:27;;;;;;;14.60;6.55;;;;;;;7.78;100.00;102427.25;5004172;28;20036;-61
2023/05/17 03:01:52;;;;;;;14.85;6.38;;;;;;;7.82;100.00;102425.03;5004580;28;20563;-62
2023/05/17 03:04:19;;;;;;;10.38;6.07;;;;;;;7.87;100.00;102430.00;5005992;28;20022;-61
2023/05/17 03:06:44;;;;;;;11.25;5.93;;;;;;;7.86;100.00;102425.56;5005726;28;20607;-61
2023/05/17 03:09:10;;;;;;;13.88;6.70;;;;;;;7.89;100.00;102433.41;5006039;28;20029;-61
2023/05/17 03:11:35;;;;;;;11.40;6.47;;;;;;;7.91;100.00;102431.38;5006175;28;20113;-61
2023/05/17 03:14:00;;;;;;;10.20;7.00;;;;;;;7.93;100.00;102437.50;5005961;28;20109;-60
2023/05/17 03:16:25;;;;;;;11.85;6.72;;;;;;;7.96;100.00;102437.16;5005718;28;20080;-61
2023/05/17 03:18:51;;;;;;;11.07;6.55;;;;;;;7.98;100.00;102446.03;5006048;28;20033;-61
2023/05/17 03:21:16;;;;;;;14.50;6.80;;;;;;;8.00;100.00;102438.50;5003417;28;20045;-61
2023/05/17 03:23:41;;;;;;;11.68;6.72;;;;;;;8.03;100.00;102441.75;5004737;28;20117;-61
2023/05/17 03:26:07;;;;;;;13.02;6.38;;;;;;;8.03;100.00;102438.16;5004948;28;20030;-61
2023/05/17 03:28:32;;;;;;;14.15;6.72;;;;;;;8.02;100.00;102445.50;5004156;28;20068;-61
2023/05/17 03:30:57;;;;;;;11.23;6.63;;;;;;;8.03;100.00;102447.22;5005248;28;20113;-61
2023/05/17 03:33:23;;;;;;;12.25;7.15;;;;;;;8.02;100.00;102452.88;5005676;28;20539;-61
2023/05/17 03:35:48;;;;;;;14.10;6.78;;;;;;;8.01;100.00;102446.56;5004892;28;20102;-60
2023/05/17 03:38:13;;;;;;;12.45;6.57;;;;;;;7.98;100.00;102451.50;5004139;28;20021;-60
2023/05/17 03:40:40;;;;;;;13.73;6.80;;;;;;;7.92;100.00;102453.06;5005471;28;20025;-61
2023/05/17 03:43:05;;;;;;;11.10;6.38;;;;;;;7.88;100.00;102450.84;5004567;28;20647;-61
2023/05/17 03:45:30;;;;;;;13.40;6.60;;;;;;;7.87;100.00;102460.09;5004963;28;20105;-61
2023/05/17 03:47:55;;;;;;;12.07;6.68;;;;;;;7.79;100.00;102461.78;5004671;28;20034;-61
2023/05/17 03:50:21;;;;;;;13.30;6.65;;;;;;;7.75;100.00;102457.69;5004854;28;20026;-61
2023/05/17 03:52:46;;;;;;;13.55;6.55;;;;;;;7.72;100.00;102457.19;5004842;28;20026;-61
2023/05/17 03:55:12;;;;;;;10.63;6.05;;;;;;;7.69;100.00;102466.59;5004991;28;20030;-61
2023/05/17 03:57:37;;;;;;;11.30;6.20;;;;;;;7.68;100.00;102467.63;5007045;28;20481;-61
2023/05/17 04:00:07;;;;;;;12.18;6.32;;;;;;;7.70;100.00;102478.38;5008312;28;20026;-61
2023/05/17 04:02:33;;;;;;;14.27;6.90;;;;;;;7.70;100.00;102483.84;5008279;28;20397;-61
2023/05/17 04:04:58;;;;;;;12.02;6.75;;;;;;;7.68;100.00;102475.81;5007903;28;20030;-61
2023/05/17 04:07:23;;;;;;;11.55;6.63;;;;;;;7.69;100.00;102480.25;5008278;28;20112;-61
2023/05/17 04:09:48;;;;;;;11.25;6.88;;;;;;;7.65;100.00;102478.88;5008840;28;20026;-61
2023/05/17 04:12:14;;;;;;;12.15;6.45;;;;;;;7.65;100.00;102484.34;5008255;28;20445;-61
2023/05/17 04:14:39;;;;;;;13.45;7.00;;;;;;;7.64;100.00;102482.66;5002095;28;20053;-61
2023/05/17 04:17:04;;;;;;;10.77;6.80;;;;;;;7.65;100.00;102480.78;5000620;28;20030;-61
2023/05/17 04:19:30;;;;;;;14.20;6.50;;;;;;;7.65;100.00;102484.34;5007555;28;20030;-61
2023/05/17 04:21:55;;;;;;;11.77;6.57;;;;;;;7.64;100.00;102490.00;5007420;28;20548;-61
2023/05/17 04:24:20;;;;;;;13.30;6.35;;;;;;;7.65;100.00;102486.25;5008314;28;20033;-61
2023/05/17 04:26:46;;;;;;;12.98;6.35;;;;;;;7.67;100.00;102490.53;5007545;28;20030;-61
2023/05/17 04:29:11;;;;;;;11.10;6.50;;;;;;;7.69;100.00;102496.66;5007860;28;20610;-61
2023/05/17 04:31:37;;;;;;;12.50;6.78;;;;;;;7.68;100.00;102500.44;5008266;28;20493;-61
2023/05/17 04:34:02;;;;;;;11.55;6.15;;;;;;;7.68;100.00;102503.16;5007083;28;20058;-61
2023/05/17 04:36:28;;;;;;;10.98;6.35;;;;;;;7.69;100.00;102504.88;5007141;28;20030;-61
2023/05/17 04:38:54;;;;;;;13.45;6.93;;;;;;;7.69;100.00;102510.34;5007446;28;20021;-61
2023/05/17 04:41:19;;;;;;;11.77;6.38;;;;;;;7.73;100.00;102508.13;5008022;28;20407;-62
2023/05/17 04:43:45;;;;;;;14.60;6.80;;;;;;;7.73;100.00;102514.44;5005518;28;20073;-61
2023/05/17 04:46:10;;;;;;;10.77;6.10;;;;;;;7.76;100.00;102518.75;5007010;28;20037;-60
2023/05/17 04:48:37;;;;;;;13.05;6.28;;;;;;;7.78;100.00;102516.66;5006818;28;20037;-60
2023/05/17 04:51:03;;;;;;;9.18;6.22;;;;;;;7.81;100.00;102521.81;5006057;28;20527;-61
2023/05/17 04:53:29;;;;;;;11.60;6.05;;;;;;;7.83;100.00;102524.38;5008009;28;20026;-61
2023/05/17 04:55:55;;;;;;;10.63;6.40;;;;;;;7.85;100.00;102534.09;5007296;28;20026;-61
2023/05/17 04:58:23;;;;;;;10.98;5.95;;;;;;;7.88;100.00;102532.91;5007293;28;20479;-61
2023/05/17 05:00:48;;;;;;;11.77;6.45;;;;;;;7.91;100.00;102533.44;5006588;28;20029;-61
2023/05/17 05:03:13;;;;;;;11.25;5.82;;;;;;;7.95;100.00;102536.66;5005477;28;20030;-61
2023/05/17 05:05:38;;;;;;;11.50;6.90;;;;;;;7.98;100.00;102534.44;5005723;28;20120;-61
2023/05/17 05:08:04;;;;;;;12.68;6.22;;;;;;;8.00;100.00;102543.31;5004465;28;20033;-61
2023/05/17 05:10:29;;;;;;;11.43;6.25;;;;;;;8.03;100.00;102542.13;5005685;28;20037;-61
2023/05/17 05:12:54;;;;;;;11.90;6.47;;;;;;;8.06;100.00;102547.28;5005786;28;20113;-61
2023/05/17 05:15:20;;;;;;;12.63;6.28;;;;;;;8.10;100.00;102548.63;5003366;28;20017;-61
2023/05/17 05:17:45;;;;;;;12.80;6.75;;;;;;;8.15;100.00;102543.47;5006783;28;20136;-61
2023/05/17 05:20:11;;;;;;;12.50;6.70;;;;;;;8.26;100.00;102550.47;5006428;28;20022;-61
2023/05/17 05:22:36;;;;;;;13.20;6.70;;;;;;;8.35;100.00;102552.16;5006404;28;20127;-61
2023/05/17 05:25:01;;;;;;;12.25;6.53;;;;;;;8.43;100.00;102552.19;5006708;28;20025;-61
2023/05/17 05:27:27;;;;;;;12.85;6.43;;;;;;;8.50;100.00;102560.56;5007302;28;20034;-60
2023/05/17 05:29:53;;;;;;;13.32;7.22;;;;;;;8.58;100.00;102566.03;5008069;28;20038;-61
2023/05/17 05:32:19;;;;;;;12.80;6.40;;;;;;;8.65;100.00;102568.91;5007493;28;20127;-61
2023/05/17 05:34:44;;;;;;;13.70;6.40;;;;;;;8.69;100.00;102564.78;5007125;28;20490;-61
2023/05/17 05:37:09;;;;;;;13.13;6.45;;;;;;;8.71;100.00;102563.56;5021662;28;20091;-61
2023/05/17 05:39:35;;;;;;;11.48;6.50;;;;;;;8.75;100.00;102570.41;5007039;28;20503;-61
2023/05/17 05:42:00;;;;;;;13.05;6.57;;;;;;;8.80;100.00;102567.13;5007064;28;20504;-62
2023/05/17 05:44:25;;;;;;;13.68;6.32;;;;;;;8.84;100.00;102571.25;5007123;28;20053;-62
2023/05/17 05:46:50;;;;;;;13.75;6.82;;;;;;;8.88;100.00;102574.50;5007005;28;20465;-61
2023/05/17 05:49:16;;;;;;;15.68;5.70;;;;;;;8.93;100.00;102577.56;5006095;28;20022;-61
2023/05/17 05:51:41;;;;;;;14.10;5.43;;;;;;;8.97;100.00;102578.88;5007173;28;20030;-61
2023/05/17 05:54:06;;;;;;;12.32;5.82;;;;;;;9.01;100.00;102580.25;5006449;28;20053;-61
2023/05/17 05:56:31;;;;;;;11.68;5.18;;;;;;;9.07;100.00;102585.00;5006166;28;20030;-61
2023/05/17 05:58:57;;;;;;;10.48;5.05;;;;;;;9.11;100.00;102589.09;5006567;28;20073;-61
2023/05/17 06:01:24;;;;;;;11.45;4.85;;;;;;;9.14;100.00;102596.97;5007035;28;20447;-61
2023/05/17 06:03:49;;;;;;;10.60;4.80;;;;;;;9.18;100.00;102595.59;5006880;28;20436;-61
2023/05/17 06:06:17;;;;;;;9.38;4.65;;;;;;;9.23;100.00;102595.91;5005526;28;20026;-61
2023/05/17 06:08:44;;;;;;;10.98;4.53;;;;;;;9.26;100.00;102595.53;5006395;28;20034;-61
2023/05/17 06:11:10;;;;;;;11.50;4.50;;;;;;;9.34;100.00;102602.88;5005725;28;20802;-61
2023/05/17 06:13:35;;;;;;;13.40;4.07;;;;;;;9.35;100.00;102599.94;5021222;28;20022;-61
2023/05/17 06:16:00;;;;;;;11.18;4.13;;;;;;;9.39;100.00;102600.44;5005592;28;20076;-62
2023/05/17 06:18:26;;;;;;;10.38;4.05;;;;;;;9.45;100.00;102610.69;4989215;28;20557;-61
2023/05/17 06:20:51;;;;;;;10.75;3.80;;;;;;;9.50;100.00;102612.91;4983998;28;20030;-61
2023/05/17 06:23:16;;;;;;;12.30;4.32;;;;;;;9.54;100.00;102620.59;4984760;28;20022;-61
2023/05/17 06:25:41;;;;;;;11.85;3.55;;;;;;;9.58;100.00;102630.19;4984922;28;20464;-61
2023/05/17 06:28:08;;;;;;;9.95;3.72;;;;;;;9.65;100.00;102627.56;4984590;28;20117;-61
2023/05/17 06:30:33;;;;;;;13.00;3.70;;;;;;;9.73;100.00;102624.78;4984799;28;20531;-61
2023/05/17 06:32:58;;;;;;;11.23;3.50;;;;;;;9.79;100.00;102631.41;4984957;28;20030;-61
2023/05/17 06:35:24;;;;;;;10.38;3.13;;;;;;;9.85;100.00;102623.31;4982484;28;20437;-62
2023/05/17 06:37:49;;;;;;;12.43;3.00;;;;;;;9.95;100.00;102628.53;4984810;28;20030;-61
2023/05/17 06:40:15;;;;;;;11.10;3.08;;;;;;;10.04;100.00;102629.34;4984879;28;20015;-61
2023/05/17 06:42:40;;;;;;;11.02;3.42;;;;;;;10.13;100.00;102615.34;4984684;28;20046;-61
2023/05/17 06:45:06;;;;;;;11.55;3.55;;;;;;;10.20;100.00;102631.09;4984175;28;20102;-60
2023/05/17 06:47:31;;;;;;;10.35;3.65;;;;;;;10.18;96.82;102623.03;4984640;28;20034;-61
2023/05/17 06:49:56;;;;;;;10.23;2.42;;;;;;;10.20;96.64;102623.72;4983947;28;20027;-62
2023/05/17 06:52:22;;;;;;;9.63;2.55;;;;;;;10.23;96.60;102630.72;4984166;28;20034;-61
2023/05/17 06:54:47;;;;;;;10.57;2.95;;;;;;;10.38;97.30;102628.91;4984882;28;20026;-61
2023/05/17 06:57:12;;;;;;;8.93;2.55;;;;;;;10.46;91.50;102634.31;4984369;28;20022;-61
2023/05/17 06:59:38;;;;;;;9.02;2.45;;;;;;;10.63;91.71;102630.38;4984347;28;20026;-62
2023/05/17 07:02:03;;;;;;;11.40;2.88;;;;;;;10.89;93.68;102624.41;4984187;28;20509;-61
2023/05/17 07:04:28;;;;;;;11.23;2.88;;;;;;;11.11;93.52;102628.13;4983638;28;20105;-61
2023/05/17 07:06:54;;;;;;;12.68;2.95;;;;;;;11.26;90.80;102630.00;4984219;28;20485;-62
2023/05/17 07:09:20;;;;;;;9.07;2.75;;;;;;;11.37;89.88;102635.88;4984630;28;20432;-61
2023/05/17 07:11:46;;;;;;;10.05;2.78;;;;;;;11.42;89.96;102638.88;4984736;28;20460;-61
2023/05/17 07:14:11;;;;;;;9.20;2.90;;;;;;;11.46;86.94;102638.53;4984233;28;20114;-61
2023/05/17 07:16:37;;;;;;;10.50;2.75;;;;;;;11.54;86.92;102641.97;4993151;28;20101;-61
2023/05/17 07:19:02;;;;;;;8.43;2.20;;;;;;;11.49;82.09;102636.22;5002749;28;20062;-62
2023/05/17 07:21:28;;;;;;;9.43;2.25;;;;;;;11.47;84.87;102641.06;5003405;28;20060;-61
2023/05/17 07:23:53;;;;;;;9.10;2.40;;;;;;;11.46;81.89;102641.28;5004319;28;20463;-62
2023/05/17 07:26:19;;;;;;;11.95;3.10;;;;;;;11.42;83.27;102644.38;5003874;28;20502;-61
2023/05/17 07:28:44;;;;;;;10.13;2.65;;;;;;;11.36;83.96;102650.66;5004397;28;20053;-62
2023/05/17 07:31:10;;;;;;;9.43;2.83;;;;;;;11.48;86.07;102652.91;5003839;28;20350;-61
2023/05/17 07:33:36;;;;;;;10.70;2.35;;;;;;;11.52;84.52;102657.84;5007214;28;20026;-61
2023/05/17 07:36:01;;;;;;;10.35;2.50;;;;;;;11.52;84.05;102655.09;5006636;28;20049;-62
2023/05/17 07:38:27;;;;;;;10.02;2.55;;;;;;;11.59;78.03;102658.78;5007644;28;20029;-61
2023/05/17 07:40:52;;;;;;;7.97;2.30;;;;;;;11.82;79.80;102661.41;5008087;28;20018;-60
2023/05/17 07:43:17;;;;;;;8.10;2.70;;;;;;;12.27;79.42;102652.97;5006691;28;20411;-61
2023/05/17 07:45:43;;;;;;;10.90;2.40;;;;;;;13.31;79.65;102656.69;5007861;28;20382;-61
2023/05/17 07:48:08;;;;;;;8.73;2.38;;;;;;;13.95;73.67;102656.31;4991201;28;20109;-60
2023/05/17 07:50:33;;;;;;;8.88;2.40;;;;;;;13.75;69.79;102663.69;4986574;28;20033;-61
2023/05/17 07:52:59;;;;;;;8.88;2.15;;;;;;;13.29;71.00;102669.88;4987256;28;20030;-62
2023/05/17 07:55:24;;;;;;;8.98;2.47;;;;;;;12.86;71.41;102680.16;4987638;28;20488;-61
2023/05/17 07:57:49;;;;;;;8.70;2.25;;;;;;;12.61;72.54;102682.50;4987798;28;20062;-61
2023/05/17 08:00:18;;;;;;;9.75;2.50;;;;;;;12.50;74.72;102681.16;4987436;28;20053;-61
2023/05/17 08:02:43;;;;;;;;;;;;;;;12.59;76.83;102673.59;4988106;28;20501;-61
2023/05/17 08:05:08;;;;;;;7.38;1.92;;;;;;;12.31;73.04;102679.91;4986467;28;19920;-61
2023/05/17 08:07:34;;;;;;;8.80;2.25;;;;;;;12.12;74.90;102678.69;4986885;28;20029;-61
2023/05/17 08:09:59;;;;;;;9.98;2.28;;;;;;;12.16;74.59;102687.38;4987563;28;20065;-61
2023/05/17 08:12:24;;;;;;;7.50;1.70;;;;;;;12.32;77.81;102684.41;4987162;28;20033;-62
2023/05/17 08:14:50;;;;;;;8.32;2.67;;;;;;;12.42;72.82;102679.41;4987579;28;20034;-61
2023/05/17 08:17:15;;;;;;;9.13;2.00;;;;;;;12.53;71.92;102679.91;4996311;28;20030;-61
2023/05/17 08:19:40;;;;;;;8.05;1.88;;;;;;;12.61;70.85;102680.59;4986725;28;20479;-61
2023/05/17 08:22:06;;;;;;;9.35;2.10;;;;;;;12.50;71.07;102681.16;4986387;28;20452;-60
2023/05/17 08:24:31;;;;;;;7.70;2.03;;;;;;;12.45;71.77;102684.50;4986970;28;20042;-61
2023/05/17 08:26:57;;;;;;;7.45;2.10;;;;;;;12.56;71.36;102688.63;4987133;28;20106;-62
2023/05/17 08:29:22;;;;;;;6.32;1.90;;;;;;;12.70;68.75;102682.16;4987670;28;20030;-60
2023/05/17 08:31:47;;;;;;;8.10;2.20;;;;;;;12.96;70.68;102678.75;4986679;28;20658;-62
2023/05/17 08:34:13;;;;;;;7.43;1.80;;;;;;;13.11;68.92;102678.63;4986359;28;20026;-61
2023/05/17 08:36:38;;;;;;;8.70;2.30;;;;;;;12.93;67.90;102687.44;4986769;28;20396;-61
2023/05/17 08:39:03;;;;;;;8.20;1.85;;;;;;;12.68;68.47;102683.44;4986706;28;20358;-61
2023/05/17 08:41:29;;;;;;;6.43;1.90;;;;;;;12.61;72.33;102688.03;4986673;28;20046;-61
2023/05/17 08:43:57;;;;;;;8.95;1.88;;;;;;;12.90;73.78;102678.72;4986731;28;20735;-62
2023/05/17 08:46:25;;;;;;;7.60;1.90;;;;;;;13.18;69.11;102685.06;4987103;28;20027;-61
2023/05/17 08:48:51;;;;;;;6.25;1.77;;;;;;;13.41;65.94;102668.22;4986875;28;20110;-61
2023/05/17 08:51:18;;;;;;;7.90;1.90;;;;;;;13.83;66.65;102681.97;4985953;28;20101;-61
2023/05/17 08:53:46;;;;;;;7.85;2.00;;;;;;;13.95;69.00;102685.84;4986860;28;20424;-61
2023/05/17 08:56:14;;;;;;;5.23;1.60;;;;;;;13.82;63.53;102694.06;4986579;28;20023;-62
2023/05/17 08:58:42;;;;;;;7.30;2.00;;;;;;;13.63;63.56;102691.03;4986344;28;20408;-61
2023/05/17 09:01:08;;;;;;;6.28;1.77;;;;;;;13.71;64.00;102684.47;4986448;28;20023;-62
2023/05/17 09:03:34;;;;;;;9.45;2.15;;;;;;;14.08;63.77;102685.84;4986185;28;20386;-62
2023/05/17 09:06:00;;;;;;;5.43;1.60;;;;;;;14.43;62.58;102689.31;4985491;28;20026;-61
2023/05/17 09:08:27;;;;;;;5.95;1.77;;;;;;;14.70;62.02;102684.69;4986848;28;20022;-61
2023/05/17 09:10:55;;;;;;;7.55;2.10;;;;;;;14.66;61.59;102693.63;4986673;28;20673;-62
2023/05/17 09:13:21;;;;;;;8.95;2.60;;;;;;;14.39;62.73;102693.56;4986649;28;20026;-61
2023/05/17 09:15:47;;;;;;;7.97;2.05;;;;;;;14.07;62.04;102695.22;4986976;28;20030;-61
2023/05/17 09:18:13;;;;;;;6.07;1.67;;;;;;;13.80;63.32;102696.22;5004784;28;20260;-61
2023/05/17 09:20:39;;;;;;;10.60;2.55;;;;;;;13.92;63.19;102687.09;5005424;28;20265;-61
2023/05/17 09:23:08;;;;;;;6.97;1.90;;;;;;;14.46;62.58;102699.97;5005201;28;20029;-60
2023/05/17 09:25:34;;;;;;;6.80;1.83;;;;;;;14.97;59.40;102696.56;5005569;28;20201;-61
2023/05/17 09:28:06;;;;;;;7.55;1.95;;;;;;;16.84;57.10;102687.13;5005178;28;20502;-61
2023/05/17 09:30:33;;;;;;;5.28;1.80;;;;;;;17.52;53.59;102686.16;5005851;28;20112;-61
2023/05/17 09:33:08;;;;;;;6.47;1.80;;;;;;;17.38;52.75;102692.94;5004954;28;20306;-62
2023/05/17 09:35:35;;;;;;;6.03;1.67;;;;;;;17.36;52.43;102690.41;5005055;28;20071;-61
2023/05/17 09:38:12;;;;;;;6.80;1.73;;;;;;;16.71;53.94;102694.66;5004651;28;20075;-61
2023/05/17 09:40:39;;;;;;;7.07;1.87;;;;;;;16.77;54.54;102697.41;5005803;28;20025;-62
2023/05/17 09:43:05;;;;;;;4.28;1.67;;;;;;;19.23;50.37;102688.47;5005221;28;20304;-61
2023/05/17 09:45:34;;;;;;;7.05;2.20;;;;;;;21.41;44.29;102683.28;5005538;28;20219;-62
2023/05/17 09:48:17;;;;;;;4.40;1.48;;;;;;;23.59;41.54;102688.38;5005085;28;20057;-60
2023/05/17 09:50:47;;;;;;;6.40;1.52;;;;;;;24.23;36.20;102685.22;5004216;28;20022;-62
2023/05/17 09:53:32;;;;;;;5.82;1.63;;;;;;;23.42;38.62;102688.56;5004114;28;20241;-62
2023/05/17 09:56:04;;;;;;;3.88;1.42;;;;;;;21.41;37.13;102688.03;5004189;28;20705;-61
2023/05/17 09:58:35;;;;;;;5.57;1.58;;;;;;;22.25;37.44;102682.03;5004699;28;20461;-61
2023/05/17 10:01:06;;;;;;;4.93;1.52;;;;;;;23.14;36.41;102688.97;5004709;28;20058;-60
2023/05/17 10:03:34;;;;;;;7.30;1.67;;;;;;;23.80;34.03;102684.53;5004072;28;20029;-62
2023/05/17 10:06:02;;;;;;;6.13;1.60;;;;;;;22.37;35.10;102684.69;5004355;28;20598;-62
2023/05/17 10:08:28;;;;;;;5.57;1.48;;;;;;;20.77;39.99;102690.41;5004801;28;20401;-61
2023/05/17 10:10:57;;;;;;;5.05;1.40;;;;;;;22.34;38.56;102676.81;5004216;28;20423;-62
2023/05/17 10:13:28;;;;;;;4.93;1.40;;;;;;;24.00;33.15;102680.13;5005274;28;20427;-61
2023/05/17 10:15:54;;;;;;;6.85;1.70;;;;;;;24.46;31.39;102678.25;5004586;28;20040;-62
2023/05/17 10:18:20;;;;;;;4.18;1.33;;;;;;;22.31;35.58;102691.38;5005027;28;20413;-62
2023/05/17 10:20:47;;;;;;;6.57;2.13;;;;;;;20.82;36.06;102702.50;5004928;28;20026;-62
2023/05/17 10:23:13;;;;;;;5.95;1.50;;;;;;;20.63;38.69;102701.06;5005147;28;20092;-62
2023/05/17 10:25:39;;;;;;;5.53;1.50;;;;;;;22.08;35.64;102693.31;5004121;28;20103;-62
2023/05/17 10:28:06;;;;;;;5.70;1.58;;;;;;;22.53;33.04;102684.56;5004641;28;20026;-62
2023/05/17 10:30:32;;;;;;;5.97;1.50;;;;;;;22.85;33.23;102691.25;5005479;28;20029;-62
2023/05/17 10:32:59;;;;;;;6.50;1.50;;;;;;;23.64;32.27;102681.97;5004944;28;20032;-62
2023/05/17 10:35:26;;;;;;;4.88;1.25;;;;;;;24.13;32.89;102679.59;5004045;28;20080;-62
2023/05/17 10:37:52;;;;;;;5.18;1.38;;;;;;;23.87;29.87;102669.41;5005088;28;20026;-62
2023/05/17 10:40:18;;;;;;;3.63;1.20;;;;;;;23.25;31.06;102682.31;5005483;28;20129;-62
2023/05/17 10:42:50;;;;;;;3.65;1.30;;;;;;;23.39;29.41;102677.06;5005780;28;20046;-62
2023/05/17 10:45:19;;;;;;;5.03;1.55;;;;;;;23.44;33.92;102675.13;5006307;28;20026;-61
2023/05/17 10:47:45;;;;;;;4.95;1.35;;;;;;;23.33;29.44;102670.59;5001089;28;20041;-62
2023/05/17 10:50:14;;;;;;;5.28;1.45;;;;;;;22.24;31.76;102664.41;5002905;28;20026;-62
2023/05/17 10:52:47;;;;;;;4.43;1.20;;;;;;;21.50;35.21;102678.09;5006112;28;20093;-61
2023/05/17 10:55:17;;;;;;;6.40;1.48;;;;;;;19.92;39.60;102681.03;5006054;28;20040;-61
2023/05/17 10:57:42;;;;;;;5.43;1.45;;;;;;;19.44;41.16;102676.69;5006079;28;20084;-61
2023/05/17 11:00:11;;;;;;;5.65;1.45;;;;;;;19.17;42.00;102668.00;5006350;28;20026;-61
2023/05/17 11:02:41;;;;;;;4.05;1.40;;;;;;;19.16;40.50;102675.53;5006597;28;20030;-62
2023/05/17 11:05:21;;;;;;;3.88;1.40;;;;;;;19.24;39.96;102659.50;5004048;28;20041;-61
2023/05/17 11:07:47;;;;;;;3.58;1.20;;;;;;;19.08;40.49;102658.31;5006683;28;20113;-62
2023/05/17 11:10:13;;;;;;;5.25;1.52;;;;;;;18.79;40.87;102654.56;5008271;28;20037;-61
2023/05/17 11:12:41;;;;;;;4.80;1.40;;;;;;;18.89;39.79;102652.88;5008807;28;20018;-61
2023/05/17 11:15:10;;;;;;;4.38;1.50;;;;;;;18.93;42.86;102658.81;5008308;28;20045;-60
2023/05/17 11:17:42;;;;;;;6.43;1.40;;;;;;;18.89;41.01;102661.22;5007634;28;20037;-61
2023/05/17 11:20:13;;;;;;;4.97;1.50;;;;;;;18.94;40.96;102666.06;5005480;28;20240;-65